Time;durP1;ratioP1;P1;durP2;ratioP2;P2;SDS_P1;SDS_P2;PMS_P1;PMS_P2;Temp;Humidity;BMP_temperature;BMP_pressure;BME280_temperature;BME280_humidity;BME280_pressure;Samples;Min_cycle;Max_cycle;Signal;HPM_P1;HPM_P2
2023/07/10 00:01:49;;;;;;;7.38;5.32;;;19.80;99.90;;;;;;5039422;28;20204;-69
2023/07/10 00:04:18;;;;;;;8.40;5.07;;;19.70;99.90;;;;;;5038002;28;20203;-68
2023/07/10 00:06:46;;;;;;;6.22;5.00;;;19.70;99.90;;;;;;5038471;28;20920;-69
2023/07/10 00:09:13;;;;;;;5.20;4.70;;;19.80;99.90;;;;;;5026724;28;20599;-69
2023/07/10 00:11:42;;;;;;;5.80;5.20;;;19.70;99.90;;;;;;5020107;28;20213;-69
2023/07/10 00:14:18;;;;;;;5.47;4.78;;;19.80;99.90;;;;;;5033475;28;20203;-69
2023/07/10 00:16:45;;;;;;;9.30;5.15;;;19.70;99.90;;;;;;5043995;28;20715;-69
2023/07/10 00:19:13;;;;;;;8.77;5.22;;;19.80;99.90;;;;;;5035670;28;20208;-69
2023/07/10 00:21:40;;;;;;;9.23;5.32;;;19.70;99.90;;;;;;5042854;28;20288;-69
2023/07/10 00:24:07;;;;;;;13.38;5.38;;;19.50;99.90;;;;;;5019786;28;20232;-69
2023/07/10 00:26:37;;;;;;;11.88;6.38;;;19.40;99.90;;;;;;5005183;28;20217;-69
2023/07/10 00:29:15;;;;;;;8.07;5.18;;;19.40;99.90;;;;;;5038491;28;20220;-69
2023/07/10 00:31:42;;;;;;;10.35;5.63;;;19.40;99.90;;;;;;5023720;28;21042;-69
2023/07/10 00:34:13;;;;;;;9.20;6.80;;;19.40;99.90;;;;;;5041375;28;20284;-68
2023/07/10 00:36:41;;;;;;;10.05;4.93;;;19.40;99.90;;;;;;5036148;28;20229;-68
2023/07/10 00:39:18;;;;;;;7.07;5.20;;;19.50;99.90;;;;;;5029256;28;20204;-68
2023/07/10 00:41:47;;;;;;;9.43;5.63;;;19.50;99.90;;;;;;5016659;28;20939;-69
2023/07/10 00:44:16;;;;;;;8.77;5.43;;;19.50;99.90;;;;;;5045712;28;20201;-69
2023/07/10 00:46:49;;;;;;;10.80;4.95;;;19.50;99.90;;;;;;5043063;28;20220;-69
2023/07/10 00:49:21;;;;;;;7.60;5.30;;;19.50;99.90;;;;;;5029553;28;20227;-69
2023/07/10 00:52:00;;;;;;;11.48;5.75;;;19.50;99.90;;;;;;5038612;28;20210;-69
2023/07/10 00:54:31;;;;;;;7.35;5.50;;;19.40;99.90;;;;;;5017820;28;20361;-69
2023/07/10 00:56:59;;;;;;;12.48;6.75;;;19.50;99.90;;;;;;5028100;28;20245;-69
2023/07/10 00:59:29;;;;;;;9.73;5.80;;;19.80;99.90;;;;;;5031226;28;20223;-69
2023/07/10 01:02:21;;;;;;;9.02;5.70;;;19.40;99.90;;;;;;5041606;28;21139;-69
2023/07/10 01:04:57;;;;;;;8.25;6.32;;;19.50;99.90;;;;;;5036181;28;22707;-69
2023/07/10 01:07:26;;;;;;;6.80;6.07;;;18.80;99.90;;;;;;5029695;28;21594;-68
2023/07/10 01:09:57;;;;;;;9.48;5.90;;;19.40;99.90;;;;;;5031600;28;20208;-68
2023/07/10 01:12:25;;;;;;;8.80;6.07;;;19.40;99.90;;;;;;5022178;28;20197;-68
2023/07/10 01:14:53;;;;;;;15.20;6.03;;;19.40;99.90;;;;;;5036196;28;20212;-68
2023/07/10 01:17:20;;;;;;;12.63;5.60;;;19.40;99.90;;;;;;5034219;28;21004;-68
2023/07/10 01:19:47;;;;;;;9.82;6.63;;;19.40;99.90;;;;;;5038590;28;21487;-68
2023/07/10 01:22:16;;;;;;;9.57;6.32;;;19.50;99.90;;;;;;5033356;28;20212;-68
2023/07/10 01:24:43;;;;;;;7.88;6.05;;;19.50;99.90;;;;;;5029778;28;20224;-68
2023/07/10 01:27:13;;;;;;;8.40;5.88;;;19.50;99.90;;;;;;5026964;28;20317;-68
2023/07/10 01:29:44;;;;;;;10.88;7.30;;;19.50;99.90;;;;;;5012388;28;20205;-68
2023/07/10 01:32:13;;;;;;;11.85;6.68;;;19.40;99.90;;;;;;5038870;28;20204;-68
2023/07/10 01:34:42;;;;;;;12.68;7.00;;;19.60;99.90;;;;;;5036318;28;20196;-68
2023/07/10 01:37:09;;;;;;;10.35;6.85;;;19.60;99.90;;;;;;5025406;28;20597;-69
2023/07/10 01:39:40;;;;;;;9.02;6.38;;;19.70;99.90;;;;;;5033901;28;23289;-68
2023/07/10 01:42:08;;;;;;;8.75;6.35;;;19.70;99.90;;;;;;5044291;28;20196;-68
2023/07/10 01:44:37;;;;;;;6.35;5.57;;;19.70;99.90;;;;;;5023136;28;20213;-68
2023/07/10 01:47:07;;;;;;;11.43;5.80;;;19.70;99.90;;;;;;5040520;28;20201;-68
2023/07/10 01:49:36;;;;;;;7.35;6.18;;;19.70;99.90;;;;;;5046176;28;20262;-68
2023/07/10 01:52:07;;;;;;;9.10;6.47;;;19.80;99.90;;;;;;5027589;28;20206;-68
2023/07/10 01:54:34;;;;;;;8.38;6.30;;;19.70;99.90;;;;;;5030647;28;20215;-68
2023/07/10 01:57:02;;;;;;;12.45;6.50;;;19.80;99.90;;;;;;5036326;28;20299;-68
2023/07/10 01:59:29;;;;;;;8.85;6.63;;;19.70;99.90;;;;;;5014079;28;20842;-68
2023/07/10 02:01:57;;;;;;;9.95;6.82;;;19.70;99.90;;;;;;5043428;28;20593;-68
2023/07/10 02:04:24;;;;;;;7.07;6.20;;;19.00;99.90;;;;;;5032982;28;20196;-68
2023/07/10 02:06:54;;;;;;;9.43;7.35;;;19.80;99.90;;;;;;5032400;28;20215;-68
2023/07/10 02:09:21;;;;;;;7.97;7.18;;;19.80;99.90;;;;;;5036227;28;20228;-68
2023/07/10 02:11:48;;;;;;;10.32;6.70;;;19.80;99.90;;;;;;5028566;28;21041;-68
2023/07/10 02:14:16;;;;;;;8.57;6.68;;;19.70;99.90;;;;;;5021957;28;20209;-68
2023/07/10 02:16:43;;;;;;;12.13;6.88;;;19.80;99.90;;;;;;5038787;28;20204;-68
2023/07/10 02:19:10;;;;;;;8.10;6.28;;;19.80;99.90;;;;;;5037675;28;20201;-68
2023/07/10 02:21:37;;;;;;;12.88;6.78;;;19.90;99.90;;;;;;5026691;28;20197;-69
2023/07/10 02:24:04;;;;;;;7.25;6.10;;;19.70;99.90;;;;;;5035250;28;20229;-68
2023/07/10 02:26:31;;;;;;;7.90;7.10;;;19.60;99.90;;;;;;5028023;28;20225;-68
2023/07/10 02:28:58;;;;;;;17.08;7.90;;;19.70;99.90;;;;;;5040551;28;20204;-68
2023/07/10 02:31:27;;;;;;;11.93;7.63;;;19.80;99.90;;;;;;5015693;28;20244;-68
2023/07/10 02:33:55;;;;;;;11.45;7.03;;;19.70;99.90;;;;;;5046536;28;20197;-68
2023/07/10 02:36:22;;;;;;;9.95;7.25;;;19.60;99.90;;;;;;5032171;28;20197;-68
2023/07/10 02:38:49;;;;;;;11.30;7.70;;;19.90;99.90;;;;;;5028582;28;20235;-68
2023/07/10 02:41:16;;;;;;;10.48;7.07;;;19.60;99.90;;;;;;5027356;28;20231;-68
2023/07/10 02:43:43;;;;;;;11.77;7.68;;;18.40;99.90;;;;;;5024818;28;20229;-68
2023/07/10 02:46:09;;;;;;;10.00;7.63;;;19.50;99.90;;;;;;5000727;28;20229;-68
2023/07/10 02:48:37;;;;;;;10.88;7.28;;;19.50;99.90;;;;;;5025453;28;20210;-68
2023/07/10 02:51:05;;;;;;;13.40;8.48;;;;;;;;;;5033094;28;20205;-68
2023/07/10 02:53:32;;;;;;;16.92;8.68;;;19.50;99.90;;;;;;5013965;28;20224;-68
2023/07/10 02:55:59;;;;;;;15.82;9.82;;;19.60;99.90;;;;;;5036014;28;20201;-68
2023/07/10 02:58:26;;;;;;;15.48;9.88;;;19.50;99.90;;;;;;5014040;28;20241;-68
2023/07/10 03:00:57;;;;;;;12.65;9.90;;;19.40;99.90;;;;;;4995008;28;20228;-69
2023/07/10 03:03:24;;;;;;;17.90;10.82;;;19.40;99.90;;;;;;5030507;28;20221;-68
2023/07/10 03:05:55;;;;;;;17.30;10.93;;;19.40;99.90;;;;;;5043751;28;20194;-69
2023/07/10 03:08:22;;;;;;;20.02;10.70;;;19.40;99.90;;;;;;5031267;28;20215;-68
2023/07/10 03:10:49;;;;;;;16.65;11.02;;;19.40;99.90;;;;;;5034532;28;20713;-68
2023/07/10 03:13:16;;;;;;;16.70;10.68;;;19.50;99.90;;;;;;5031292;28;20212;-68
2023/07/10 03:15:43;;;;;;;19.98;11.57;;;19.30;99.90;;;;;;5026662;28;20200;-68
2023/07/10 03:18:10;;;;;;;19.45;11.57;;;19.30;99.90;;;;;;5034618;28;20231;-68
2023/07/10 03:20:40;;;;;;;15.77;10.57;;;19.30;99.90;;;;;;5038874;28;20205;-68
2023/07/10 03:23:08;;;;;;;16.35;11.10;;;19.40;99.90;;;;;;5038680;28;20251;-69
2023/07/10 03:25:36;;;;;;;19.98;12.25;;;19.40;99.90;;;;;;5020609;28;20205;-68
2023/07/10 03:28:02;;;;;;;16.40;10.82;;;19.40;99.90;;;;;;5029656;28;20482;-68
2023/07/10 03:30:29;;;;;;;21.17;10.65;;;19.40;99.90;;;;;;5023218;28;20210;-68
2023/07/10 03:32:56;;;;;;;16.85;10.90;;;19.40;99.90;;;;;;5003394;28;20333;-69
2023/07/10 03:35:23;;;;;;;19.00;10.80;;;19.30;99.90;;;;;;5030307;28;20228;-69
2023/07/10 03:37:50;;;;;;;17.80;10.95;;;19.50;99.90;;;;;;5030136;28;20237;-68
2023/07/10 03:40:18;;;;;;;22.02;10.98;;;19.30;99.90;;;;;;5028631;28;20207;-68
2023/07/10 03:42:45;;;;;;;16.98;10.85;;;19.10;99.90;;;;;;5032917;28;20197;-68
2023/07/10 03:45:11;;;;;;;17.23;10.43;;;19.30;99.90;;;;;;5021975;28;20719;-68
2023/07/10 03:47:38;;;;;;;17.63;10.90;;;19.30;99.90;;;;;;5004816;28;20254;-68
2023/07/10 03:50:07;;;;;;;22.70;11.45;;;19.40;99.90;;;;;;5035412;28;20656;-68
2023/07/10 03:52:33;;;;;;;16.13;10.30;;;19.40;99.90;;;;;;5040795;28;20282;-68
2023/07/10 03:55:00;;;;;;;16.08;10.43;;;19.40;99.90;;;;;;5018134;28;20251;-69
2023/07/10 03:57:28;;;;;;;20.38;10.48;;;19.40;99.90;;;;;;5037404;28;20236;-68
2023/07/10 03:59:55;;;;;;;17.67;9.73;;;19.40;99.90;;;;;;5033799;28;20211;-69
2023/07/10 04:02:22;;;;;;;18.23;9.73;;;19.40;99.90;;;;;;5037319;28;21086;-68
2023/07/10 04:04:49;;;;;;;16.13;9.23;;;;;;;;;;5020977;28;20213;-69
2023/07/10 04:07:18;;;;;;;15.35;9.07;;;19.20;99.90;;;;;;5041463;28;20196;-68
2023/07/10 04:09:45;;;;;;;11.60;8.45;;;19.30;99.90;;;;;;5040394;28;20831;-69
2023/07/10 04:12:12;;;;;;;11.13;7.40;;;19.20;99.90;;;;;;5038902;28;20209;-69
2023/07/10 04:14:40;;;;;;;11.88;8.52;;;19.20;99.90;;;;;;5039555;28;20197;-68
2023/07/10 04:17:07;;;;;;;14.48;9.48;;;19.20;99.90;;;;;;5033437;28;20665;-69
2023/07/10 04:19:34;;;;;;;12.30;9.65;;;19.20;99.90;;;;;;5023406;28;20255;-69
2023/07/10 04:22:01;;;;;;;16.52;10.00;;;19.10;99.90;;;;;;5048395;28;20211;-69
2023/07/10 04:24:27;;;;;;;15.68;10.63;;;19.20;99.90;;;;;;5044032;28;20424;-69
2023/07/10 04:26:54;;;;;;;14.15;10.30;;;19.20;99.90;;;;;;5030680;28;20201;-69
2023/07/10 04:29:21;;;;;;;15.65;10.32;;;19.20;99.90;;;;;;5036942;28;20394;-69
2023/07/10 04:31:49;;;;;;;12.07;9.52;;;19.20;99.90;;;;;;5039823;28;20962;-69
2023/07/10 04:34:16;;;;;;;12.32;8.93;;;19.10;99.90;;;;;;5009352;28;20219;-69
2023/07/10 04:36:43;;;;;;;12.60;10.32;;;19.20;99.90;;;;;;5030495;28;20192;-68
2023/07/10 04:39:10;;;;;;;12.43;10.23;;;19.10;99.90;;;;;;5025225;28;20725;-68
2023/07/10 04:41:39;;;;;;;16.30;10.60;;;19.10;99.90;;;;;;5035695;28;20631;-69
2023/07/10 04:44:06;;;;;;;15.25;10.98;;;19.10;99.90;;;;;;5041228;28;20709;-68
2023/07/10 04:46:33;;;;;;;20.23;11.57;;;19.10;99.90;;;;;;5031132;28;20209;-68
2023/07/10 04:49:01;;;;;;;14.73;11.70;;;19.20;99.90;;;;;;5001658;28;20744;-69
2023/07/10 04:51:28;;;;;;;18.40;11.80;;;19.10;99.90;;;;;;5041387;28;20947;-70
2023/07/10 04:53:55;;;;;;;18.17;11.18;;;19.10;99.90;;;;;;5025050;28;21457;-68
2023/07/10 04:56:22;;;;;;;15.48;11.43;;;19.10;99.90;;;;;;5033115;28;20201;-68
2023/07/10 04:58:52;;;;;;;14.85;10.65;;;19.20;99.90;;;;;;5019647;28;20236;-68
2023/07/10 05:01:21;;;;;;;14.23;11.02;;;19.20;99.90;;;;;;5027127;28;20401;-68
2023/07/10 05:03:48;;;;;;;13.55;11.23;;;19.20;99.90;;;;;;5031736;28;20694;-69
2023/07/10 05:06:17;;;;;;;17.08;10.75;;;19.20;99.90;;;;;;5013398;28;20220;-69
2023/07/10 05:08:44;;;;;;;17.25;10.70;;;19.30;99.90;;;;;;5043565;28;20201;-69
2023/07/10 05:11:11;;;;;;;15.85;10.85;;;19.20;99.90;;;;;;5030085;28;20664;-69
2023/07/10 05:13:38;;;;;;;18.80;11.48;;;19.30;99.90;;;;;;5026387;28;20701;-69
2023/07/10 05:16:05;;;;;;;15.38;10.63;;;19.20;99.90;;;;;;5029199;28;20202;-69
2023/07/10 05:18:32;;;;;;;16.67;11.75;;;19.20;99.90;;;;;;5048230;28;20515;-69
2023/07/10 05:21:00;;;;;;;16.23;10.38;;;19.80;99.90;;;;;;5014567;28;20221;-69
2023/07/10 05:23:28;;;;;;;15.95;10.18;;;19.20;99.90;;;;;;5036240;28;20221;-68
2023/07/10 05:26:00;;;;;;;17.70;10.00;;;19.30;99.90;;;;;;5034654;28;20201;-69
2023/07/10 05:28:27;;;;;;;14.75;10.35;;;19.30;99.90;;;;;;5033148;28;20204;-69
2023/07/10 05:30:57;;;;;;;17.70;9.52;;;19.30;99.90;;;;;;5039461;28;20197;-69
2023/07/10 05:33:25;;;;;;;17.58;10.00;;;19.40;99.90;;;;;;5020625;28;20212;-69
2023/07/10 05:35:53;;;;;;;14.65;9.75;;;19.50;99.90;;;;;;5015908;28;20216;-69
2023/07/10 05:38:22;;;;;;;13.02;8.60;;;19.50;99.90;;;;;;5021552;28;20266;-69
2023/07/10 05:40:50;;;;;;;14.23;9.48;;;19.40;99.90;;;;;;5038581;28;20192;-68
2023/07/10 05:43:17;;;;;;;14.88;8.90;;;19.50;99.90;;;;;;5043204;28;20201;-69
2023/07/10 05:45:43;;;;;;;15.13;9.32;;;19.60;99.90;;;;;;5035646;28;20202;-69
2023/07/10 05:48:10;;;;;;;13.02;9.70;;;19.60;99.90;;;;;;5028893;28;20209;-69
2023/07/10 05:50:37;;;;;;;15.70;8.32;;;19.60;99.90;;;;;;5015738;28;20442;-69
2023/07/10 05:53:04;;;;;;;16.80;8.73;;;19.70;99.90;;;;;;5027789;28;20224;-69
2023/07/10 05:55:31;;;;;;;18.95;8.65;;;19.70;99.90;;;;;;5036699;28;20698;-69
2023/07/10 05:57:59;;;;;;;19.40;9.10;;;19.70;99.90;;;;;;5030964;28;20681;-69
2023/07/10 06:00:26;;;;;;;15.65;7.90;;;19.70;99.90;;;;;;5033324;28;20206;-69
2023/07/10 06:02:53;;;;;;;15.50;7.43;;;19.80;99.90;;;;;;5030362;28;20224;-69
2023/07/10 06:05:20;;;;;;;16.05;7.03;;;19.70;99.90;;;;;;5036236;28;20209;-70
2023/07/10 06:07:47;;;;;;;11.80;7.15;;;19.70;99.90;;;;;;5007709;28;20665;-69
2023/07/10 06:10:14;;;;;;;18.85;7.32;;;19.70;99.90;;;;;;5034216;28;20223;-69
2023/07/10 06:12:41;;;;;;;15.23;6.72;;;19.70;99.90;;;;;;5035514;28;20218;-69
2023/07/10 06:15:10;;;;;;;14.90;6.82;;;19.70;99.90;;;;;;5041623;28;20490;-69
2023/07/10 06:17:37;;;;;;;9.10;6.05;;;19.60;99.90;;;;;;5033387;28;20775;-68
2023/07/10 06:20:04;;;;;;;14.95;6.75;;;19.50;99.90;;;;;;5035605;28;20254;-69
2023/07/10 06:22:31;;;;;;;8.20;5.75;;;19.50;99.90;;;;;;5011596;28;21127;-69
2023/07/10 06:24:58;;;;;;;17.05;7.22;;;19.50;99.90;;;;;;5029216;28;20232;-68
2023/07/10 06:27:25;;;;;;;10.38;5.85;;;19.50;99.90;;;;;;5032111;28;20201;-69
2023/07/10 06:29:52;;;;;;;10.63;5.88;;;19.50;99.90;;;;;;5029562;28;20196;-68
2023/07/10 06:32:21;;;;;;;10.18;5.60;;;19.40;99.90;;;;;;5036366;28;20227;-69
2023/07/10 06:34:47;;;;;;;10.52;5.53;;;19.50;99.90;;;;;;5027879;28;20891;-69
2023/07/10 06:37:15;;;;;;;6.80;5.18;;;19.40;99.90;;;;;;5033694;28;20193;-69
2023/07/10 06:39:41;;;;;;;5.20;4.70;;;19.40;99.90;;;;;;5018298;28;20220;-69
2023/07/10 06:42:08;;;;;;;11.52;5.25;;;19.40;99.90;;;;;;5044158;28;20193;-69
2023/07/10 06:44:35;;;;;;;10.23;4.97;;;19.60;99.90;;;;;;5031857;28;20205;-69
2023/07/10 06:47:02;;;;;;;8.68;5.25;;;19.50;99.90;;;;;;5038813;28;20197;-68
2023/07/10 06:49:30;;;;;;;9.07;4.60;;;19.60;99.90;;;;;;5028029;28;20201;-69
2023/07/10 06:51:57;;;;;;;9.48;4.30;;;19.60;99.90;;;;;;5028023;28;20201;-69
2023/07/10 06:54:24;;;;;;;10.93;4.78;;;19.60;99.90;;;;;;5009204;28;20785;-69
2023/07/10 06:56:50;;;;;;;9.50;4.30;;;19.70;99.90;;;;;;5029698;28;20216;-69
2023/07/10 06:59:21;;;;;;;7.32;4.40;;;19.70;99.90;;;;;;5041507;28;20224;-69
2023/07/10 07:01:48;;;;;;;9.50;4.35;;;17.60;99.90;;;;;;5002219;28;20225;-69
2023/07/10 07:04:15;;;;;;;9.00;5.18;;;19.80;99.90;;;;;;5032928;28;20216;-68
2023/07/10 07:06:43;;;;;;;6.10;4.35;;;19.70;99.90;;;;;;5029123;28;20212;-69
2023/07/10 07:09:10;;;;;;;6.60;4.30;;;19.70;99.90;;;;;;5011434;28;20713;-69
2023/07/10 07:11:36;;;;;;;6.25;4.18;;;19.80;99.90;;;;;;5032322;28;20740;-69
2023/07/10 07:14:03;;;;;;;9.10;4.10;;;19.70;99.90;;;;;;5031657;28;20220;-69
2023/07/10 07:16:30;;;;;;;8.18;4.47;;;19.90;99.90;;;;;;5031592;28;20251;-69
2023/07/10 07:18:57;;;;;;;6.03;3.80;;;20.00;99.90;;;;;;5040529;28;20827;-69
2023/07/10 07:21:23;;;;;;;5.05;3.88;;;20.00;99.90;;;;;;5030194;28;20205;-69
2023/07/10 07:23:51;;;;;;;5.95;3.75;;;19.80;99.90;;;;;;5004706;28;20225;-69
2023/07/10 07:26:18;;;;;;;4.88;3.33;;;19.80;99.90;;;;;;5037590;28;20221;-69
2023/07/10 07:28:45;;;;;;;6.95;4.00;;;19.80;99.90;;;;;;5022902;28;20229;-69
2023/07/10 07:31:12;;;;;;;9.68;3.63;;;19.80;99.90;;;;;;5023963;28;20306;-69
2023/07/10 07:33:39;;;;;;;9.18;3.67;;;19.90;99.90;;;;;;5035109;28;20189;-69
2023/07/10 07:36:05;;;;;;;5.13;3.90;;;20.10;99.90;;;;;;5027677;28;20201;-68
2023/07/10 07:38:32;;;;;;;7.40;4.13;;;20.10;99.90;;;;;;5037406;28;20201;-69
2023/07/10 07:41:00;;;;;;;6.43;4.15;;;20.20;99.90;;;;;;5011408;28;20233;-68
2023/07/10 07:43:28;;;;;;;6.45;4.10;;;20.50;99.90;;;;;;5030170;28;21008;-68
2023/07/10 07:45:56;;;;;;;5.80;3.53;;;19.80;99.90;;;;;;5033344;28;20338;-69
2023/07/10 07:48:23;;;;;;;6.38;3.22;;;20.00;99.90;;;;;;5027558;28;20197;-68
2023/07/10 07:50:58;;;;;;;7.22;3.70;;;19.90;99.90;;;;;;5020536;28;20310;-68
2023/07/10 07:53:25;;;;;;;5.03;3.38;;;19.90;99.90;;;;;;5038755;28;20199;-68
2023/07/10 07:55:52;;;;;;;4.05;3.00;;;20.00;99.90;;;;;;5003902;28;20239;-68
2023/07/10 07:58:21;;;;;;;6.78;3.65;;;20.00;99.90;;;;;;5030829;28;20220;-68
2023/07/10 08:00:49;;;;;;;3.47;3.03;;;19.90;99.90;;;;;;5032548;28;20212;-68
2023/07/10 08:03:16;;;;;;;7.43;3.30;;;19.80;99.90;;;;;;5035098;28;20796;-68
2023/07/10 08:05:43;;;;;;;5.05;4.00;;;20.00;99.90;;;;;;5030004;28;20190;-69
2023/07/10 08:08:11;;;;;;;4.57;3.50;;;20.10;99.90;;;;;;5028400;28;20212;-68
2023/07/10 08:10:41;;;;;;;8.90;3.83;;;20.10;99.90;;;;;;5003626;28;20303;-68
2023/07/10 08:13:10;;;;;;;5.20;3.47;;;20.10;99.90;;;;;;5024517;28;20401;-68
2023/07/10 08:15:39;;;;;;;5.97;3.67;;;20.10;99.90;;;;;;5036537;28;20193;-68
2023/07/10 08:18:05;;;;;;;5.68;3.10;;;20.20;99.90;;;;;;5019514;28;20202;-68
2023/07/10 08:20:32;;;;;;;6.00;3.20;;;20.30;99.90;;;;;;5036570;28;20677;-68
2023/07/10 08:22:59;;;;;;;4.07;3.00;;;20.10;99.90;;;;;;5007272;28;20202;-68
2023/07/10 08:25:26;;;;;;;4.25;3.00;;;20.10;99.90;;;;;;5012502;28;20907;-68
2023/07/10 08:27:53;;;;;;;4.53;3.13;;;20.10;99.90;;;;;;5021880;28;20239;-68
2023/07/10 08:30:20;;;;;;;5.50;3.00;;;20.10;99.90;;;;;;5009180;28;20263;-69
2023/07/10 08:32:48;;;;;;;4.38;2.63;;;20.20;99.90;;;;;;4998370;28;20486;-69
2023/07/10 08:35:15;;;;;;;3.13;2.35;;;20.20;99.90;;;;;;5013826;28;20763;-69
2023/07/10 08:37:42;;;;;;;5.25;2.35;;;20.20;99.90;;;;;;5025724;28;20224;-69
2023/07/10 08:40:15;;;;;;;3.45;2.47;;;20.20;99.90;;;;;;5013482;28;20323;-69
2023/07/10 08:42:43;;;;;;;3.72;2.42;;;20.30;99.90;;;;;;4990363;28;20259;-69
2023/07/10 08:45:15;;;;;;;3.65;2.30;;;20.40;99.90;;;;;;4998443;28;20205;-68
2023/07/10 08:47:47;;;;;;;5.60;2.22;;;20.40;99.90;;;;;;5022856;28;20220;-68
2023/07/10 08:50:22;;;;;;;2.30;1.70;;;20.40;99.90;;;;;;4989678;28;20208;-68
2023/07/10 08:52:54;;;;;;;2.58;2.05;;;20.40;99.90;;;;;;5022341;28;20204;-68
2023/07/10 08:55:27;;;;;;;6.28;2.15;;;20.40;99.90;;;;;;5021431;28;20434;-68
2023/07/10 08:57:58;;;;;;;3.15;2.10;;;20.40;99.90;;;;;;5008675;28;20208;-67
2023/07/10 09:00:27;;;;;;;4.95;1.92;;;20.40;99.90;;;;;;5033188;28;20702;-68
2023/07/10 09:03:03;;;;;;;2.25;1.70;;;20.40;99.90;;;;;;5015072;28;20213;-67
2023/07/10 09:05:34;;;;;;;3.33;1.88;;;20.60;99.90;;;;;;5023880;28;20197;-68
2023/07/10 09:08:06;;;;;;;3.05;2.22;;;20.70;99.90;;;;;;5005685;28;20721;-68
2023/07/10 09:10:39;;;;;;;3.08;2.17;;;20.70;99.90;;;;;;5027593;28;20255;-68
2023/07/10 09:13:09;;;;;;;5.65;2.38;;;20.90;99.90;;;;;;5010136;28;20433;-68
2023/07/10 09:15:40;;;;;;;3.60;2.22;;;20.90;99.90;;;;;;5040823;28;20213;-68
2023/07/10 09:18:17;;;;;;;6.57;1.95;;;20.90;99.90;;;;;;5024310;28;20795;-68
2023/07/10 09:20:46;;;;;;;3.60;1.90;;;20.90;99.90;;;;;;5020656;28;20255;-68
2023/07/10 09:23:21;;;;;;;2.88;1.90;;;21.10;99.90;;;;;;5019245;28;20858;-67
2023/07/10 09:25:54;;;;;;;3.80;1.92;;;21.10;99.90;;;;;;5036802;28;20231;-68
2023/07/10 09:28:23;;;;;;;3.05;1.50;;;21.20;99.90;;;;;;5044887;28;20705;-68
2023/07/10 09:30:54;;;;;;;3.47;1.35;;;21.20;99.90;;;;;;5000848;28;20232;-67
2023/07/10 09:33:22;;;;;;;3.85;1.52;;;21.30;99.90;;;;;;5019412;28;20193;-68
2023/07/10 09:35:50;;;;;;;1.80;1.30;;;21.30;99.90;;;;;;5001322;28;20224;-67
2023/07/10 09:38:19;;;;;;;4.38;1.70;;;21.40;99.90;;;;;;5019573;28;20223;-67
2023/07/10 09:40:48;;;;;;;4.70;2.03;;;21.40;99.90;;;;;;5023364;28;20240;-67
2023/07/10 09:43:18;;;;;;;1.90;1.20;;;21.40;99.90;;;;;;5035285;28;20221;-67
2023/07/10 09:45:47;;;;;;;2.65;1.95;;;21.40;99.90;;;;;;4991380;28;20313;-67
2023/07/10 09:48:18;;;;;;;2.35;1.40;;;21.40;99.90;;;;;;5026495;28;20220;-67
2023/07/10 09:50:49;;;;;;;2.38;1.23;;;21.50;99.90;;;;;;5007541;28;20642;-67
2023/07/10 09:53:29;;;;;;;3.15;1.40;;;21.60;99.90;;;;;;5033522;28;20202;-68
2023/07/10 09:55:56;;;;;;;4.70;1.23;;;21.70;99.90;;;;;;5016365;28;20322;-67
2023/07/10 09:58:23;;;;;;;1.67;1.40;;;21.50;99.90;;;;;;5021146;28;20299;-67
2023/07/10 10:00:50;;;;;;;2.63;1.45;;;21.80;99.90;;;;;;4990073;28;20232;-67
2023/07/10 10:03:27;;;;;;;3.72;1.40;;;21.80;99.90;;;;;;5007481;28;20206;-67
2023/07/10 10:05:56;;;;;;;3.78;1.48;;;21.80;99.90;;;;;;5020224;28;20239;-66
2023/07/10 10:08:27;;;;;;;1.55;1.00;;;21.90;99.90;;;;;;5008895;28;20375;-67
2023/07/10 10:11:03;;;;;;;7.35;1.20;;;22.10;99.90;;;;;;5022221;28;21279;-67
2023/07/10 10:13:32;;;;;;;4.32;1.90;;;22.00;99.90;;;;;;5023507;28;20609;-68
2023/07/10 10:16:05;;;;;;;4.38;1.25;;;22.10;99.90;;;;;;5004109;28;20232;-68
2023/07/10 10:18:40;;;;;;;3.22;1.40;;;22.00;99.90;;;;;;5032360;28;21098;-68
2023/07/10 10:21:10;;;;;;;5.68;2.35;;;22.20;99.90;;;;;;5018460;28;20229;-68
2023/07/10 10:23:40;;;;;;;2.28;1.40;;;22.20;99.90;;;;;;5028340;28;20271;-68
2023/07/10 10:26:34;;;;;;;3.40;1.40;;;22.60;99.90;;;;;;5014954;28;20228;-68
2023/07/10 10:29:33;;;;;;;3.03;1.33;;;22.60;99.90;;;;;;5029430;28;21333;-68
2023/07/10 10:32:07;;;;;;;5.20;1.73;;;22.50;99.90;;;;;;4993358;28;20225;-68
2023/07/10 10:34:43;;;;;;;3.50;1.38;;;22.60;99.90;;;;;;5031127;28;20258;-67
2023/07/10 10:37:26;;;;;;;4.07;1.27;;;22.70;99.90;;;;;;5016826;28;20204;-68
2023/07/10 10:39:59;;;;;;;4.63;1.40;;;22.60;99.90;;;;;;5042670;28;20323;-68
2023/07/10 10:42:33;;;;;;;2.63;1.30;;;22.60;99.90;;;;;;5023973;28;20221;-68
2023/07/10 10:45:06;;;;;;;6.85;1.80;;;22.80;99.90;;;;;;5042181;28;20574;-67
2023/07/10 10:47:41;;;;;;;4.80;2.33;;;22.70;99.90;;;;;;5015408;28;20217;-67
2023/07/10 10:50:25;;;;;;;4.20;1.50;;;22.90;99.90;;;;;;5036946;28;20232;-67
2023/07/10 10:53:10;;;;;;;2.50;1.40;;;22.90;99.90;;;;;;5031160;28;20212;-67
2023/07/10 10:55:47;;;;;;;8.20;2.03;;;22.90;99.90;;;;;;5036857;28;20607;-67
2023/07/10 10:58:25;;;;;;;7.18;2.33;;;22.70;99.90;;;;;;5027604;28;20700;-67
2023/07/10 11:01:05;;;;;;;2.80;1.50;;;22.70;99.90;;;;;;5039527;28;20321;-67
2023/07/10 11:03:36;;;;;;;5.45;1.60;;;22.50;99.90;;;;;;5001074;28;20408;-67
2023/07/10 11:06:30;;;;;;;3.30;1.63;;;22.30;99.90;;;;;;5036696;28;20190;-67
2023/07/10 11:09:01;;;;;;;4.60;1.60;;;22.20;99.90;;;;;;5041051;28;20287;-67
2023/07/10 11:11:32;;;;;;;4.03;1.40;;;22.40;99.90;;;;;;5040825;28;20790;-67
2023/07/10 11:14:00;;;;;;;4.40;1.45;;;22.40;99.90;;;;;;5030130;28;20456;-66
2023/07/10 11:16:28;;;;;;;5.10;2.17;;;22.40;99.90;;;;;;5035972;28;20193;-67
2023/07/10 11:18:55;;;;;;;5.57;2.35;;;22.50;99.90;;;;;;5022360;28;20216;-67
2023/07/10 11:21:23;;;;;;;5.30;2.08;;;21.60;99.90;;;;;;5020983;28;20224;-67
2023/07/10 11:23:50;;;;;;;5.88;2.53;;;22.80;99.90;;;;;;5039664;28;20224;-67
2023/07/10 11:26:20;;;;;;;17.20;2.60;;;23.00;99.90;;;;;;5039239;28;20295;-67
2023/07/10 11:28:54;;;;;;;5.68;2.05;;;23.20;99.90;;;;;;5043249;28;20200;-67
2023/07/10 11:31:30;;;;;;;12.63;2.38;;;23.20;99.90;;;;;;5027144;28;20650;-67
2023/07/10 11:34:35;;;;;;;2.22;1.38;;;23.20;99.90;;;;;;5017686;28;20209;-67
2023/07/10 11:37:02;;;;;;;2.30;1.65;;;23.20;99.90;;;;;;5038343;28;20684;-67
2023/07/10 11:39:33;;;;;;;2.25;1.45;;;23.20;99.90;;;;;;5016200;28;21250;-67
2023/07/10 11:42:17;;;;;;;2.50;1.63;;;23.30;99.90;;;;;;5037490;28;20352;-67
2023/07/10 11:44:54;;;;;;;2.53;1.70;;;23.50;99.90;;;;;;5013623;28;20694;-67
2023/07/10 11:47:27;;;;;;;17.60;2.63;;;23.50;99.90;;;;;;5043836;28;20193;-67
2023/07/10 11:50:22;;;;;;;6.60;1.70;;;23.10;99.90;;;;;;5013829;28;20225;-66
2023/07/10 11:53:06;;;;;;;2.20;1.65;;;23.30;99.90;;;;;;5030818;28;20202;-67
2023/07/10 11:55:42;;;;;;;10.50;1.83;;;23.10;99.90;;;;;;5001862;28;20229;-67
2023/07/10 11:58:25;;;;;;;2.03;1.38;;;23.40;99.90;;;;;;5006080;28;20225;-66
2023/07/10 12:00:58;;;;;;;3.22;1.83;;;23.20;99.90;;;;;;5009123;28;20220;-66
2023/07/10 12:03:25;;;;;;;6.78;1.90;;;23.20;99.90;;;;;;5025649;28;20220;-67
2023/07/10 12:05:52;;;;;;;5.68;2.17;;;23.50;99.90;;;;;;5016525;28;20240;-66
2023/07/10 12:08:23;;;;;;;21.08;2.88;;;23.50;99.90;;;;;;4999676;28;20270;-66
2023/07/10 12:10:51;;;;;;;3.03;1.55;;;23.70;99.90;;;;;;5032206;28;20499;-67
2023/07/10 12:13:21;;;;;;;4.95;1.70;;;23.70;99.90;;;;;;5011299;28;21058;-66
2023/07/10 12:15:50;;;;;;;7.50;2.15;;;23.80;99.90;;;;;;5008488;28;20225;-66
2023/07/10 12:18:22;;;;;;;8.85;1.73;;;23.80;99.90;;;;;;5029617;28;20224;-66
2023/07/10 12:20:51;;;;;;;5.22;1.63;;;23.80;99.90;;;;;;5006311;28;20272;-66
2023/07/10 12:23:18;;;;;;;2.72;1.35;;;23.80;99.90;;;;;;5003547;28;20596;-66
2023/07/10 12:25:49;;;;;;;1.83;1.50;;;23.80;99.90;;;;;;5035534;28;20221;-66
2023/07/10 12:28:17;;;;;;;4.00;1.73;;;23.70;99.90;;;;;;5015046;28;20421;-66
2023/07/10 12:30:48;;;;;;;15.25;2.30;;;23.30;99.90;;;;;;5014123;28;20224;-66
2023/07/10 12:33:37;;;;;;;7.72;1.80;;;23.20;99.90;;;;;;5020576;28;21970;-66
2023/07/10 12:36:18;;;;;;;22.17;3.72;;;23.10;99.90;;;;;;5010279;28;20309;-66
2023/07/10 12:38:46;;;;;;;2.78;1.40;;;23.30;99.90;;;;;;5037046;28;20684;-66
2023/07/10 12:41:12;;;;;;;7.97;1.90;;;23.50;99.90;;;;;;5027494;28;20963;-66
2023/07/10 12:43:39;;;;;;;4.20;1.60;;;23.50;99.90;;;;;;5032556;28;20201;-66
2023/07/10 12:46:14;;;;;;;3.78;1.75;;;23.50;99.90;;;;;;5006221;28;20255;-66
2023/07/10 12:48:43;;;;;;;10.60;1.55;;;23.50;99.90;;;;;;5018302;28;20541;-66
2023/07/10 12:51:18;;;;;;;2.83;1.75;;;23.50;99.90;;;;;;5004997;28;20641;-66
2023/07/10 12:53:45;;;;;;;6.05;1.45;;;23.70;99.90;;;;;;5031986;28;20217;-66